Time;durP1;ratioP1;P1;durP2;ratioP2;P2;SDS_P1;SDS_P2;PMS_P1;PMS_P2;Temp;Humidity;BMP_temperature;BMP_pressure;BME280_temperature;BME280_humidity;BME280_pressure;Samples;Min_cycle;Max_cycle;Signal;HPM_P1;HPM_P2
2022/08/23 00:00:29;;;;;;;;;;;;;;;26.11;40.93;100003.66;5071384;28;992;-40
2022/08/23 00:02:55;;;;;;;;;;;;;;;24.95;43.56;100003.44;5071352;28;1044;-41
2022/08/23 00:05:21;;;;;;;;;;;;;;;23.75;48.56;99996.78;5071847;28;989;-40
2022/08/23 00:07:46;;;;;;;;;;;;;;;24.70;45.61;100012.59;5074231;28;1027;-41
2022/08/23 00:10:14;;;;;;;;;;;;;;;25.52;43.23;99998.34;5069915;28;1222;-39
2022/08/23 00:12:40;;;;;;;;;;;;;;;26.06;43.26;99994.50;5054615;28;1064;-40
2022/08/23 00:15:05;;;;;;;;;;;;;;;26.26;42.13;100000.88;5075715;28;1120;-41
2022/08/23 00:17:31;;;;;;;;;;;;;;;23.05;49.44;99999.28;5070055;28;1918;-40
2022/08/23 00:19:56;;;;;;;;;;;;;;;24.19;47.39;100007.88;5069139;28;981;-40
2022/08/23 00:22:21;;;;;;;;;;;;;;;25.10;45.21;100006.13;5066221;28;965;-38
2022/08/23 00:24:47;;;;;;;;;;;;;;;25.83;42.63;100011.69;5071431;28;1025;-39
2022/08/23 00:27:13;;;;;;;;;;;;;;;25.24;43.55;100003.59;5068046;28;1245;-39
2022/08/23 00:29:41;;;;;;;;;;;;;;;23.66;50.01;100005.88;5073211;28;961;-38
2022/08/23 00:32:07;;;;;;;;;;;;;;;24.71;46.31;100016.09;5070954;28;1259;-38
2022/08/23 00:34:33;;;;;;;;;;;;;;;24.99;44.34;100022.75;5071001;28;1000;-40
2022/08/23 00:36:58;;;;;;;;;;;;;;;23.01;52.85;100020.25;5073516;28;1957;-40
2022/08/23 00:39:24;;;;;;;;;;;;;;;24.33;47.13;100028.59;5075508;28;1049;-38
2022/08/23 00:41:49;;;;;;;;;;;;;;;25.27;45.97;100022.06;5075394;28;1229;-38
2022/08/23 00:49:52;;;;;;;;;;;;;;;26.11;44.29;100016.34;5058939;28;1242;-37
2022/08/23 00:52:26;;;;;;;;;;;;;;;23.59;52.30;100019.16;5072192;28;1001;-38
2022/08/23 00:54:52;;;;;;;;;;;;;;;24.70;47.60;100022.50;5046232;28;977;-37
2022/08/23 00:57:18;;;;;;;;;;;;;;;25.49;45.93;100022.13;5051426;28;1902;-40
2022/08/23 00:59:43;;;;;;;;;;;;;;;25.84;44.79;100014.19;5067651;28;957;-40
2022/08/23 01:02:09;;;;;;;;;;;;;;;26.20;44.25;100027.78;5070327;28;1079;-39
2022/08/23 01:04:37;;;;;;;;;;;;;;;25.66;43.83;100025.41;5070567;28;1004;-40
2022/08/23 01:07:03;;;;;;;;;;;;;;;23.27;53.48;100032.59;5070955;28;1084;-40
2022/08/23 01:09:28;;;;;;;;;;;;;;;24.54;48.02;100029.72;5073390;28;997;-40
2022/08/23 01:12:13;;;;;;;;;;;;;;;25.31;44.24;100026.03;5070219;28;1147;-41
2022/08/23 01:14:43;;;;;;;;;;;;;;;23.66;50.84;100040.78;5074823;28;1099;-41
2022/08/23 01:17:28;;;;;;;;;;;;;;;24.74;47.13;100036.44;5074830;28;1964;-39
2022/08/23 01:20:01;;;;;;;;;;;;;;;25.48;45.49;100026.66;5068706;28;945;-39
2022/08/23 01:22:26;;;;;;;;;;;;;;;25.70;45.38;100033.94;5066645;28;1068;-40
2022/08/23 01:24:51;;;;;;;;;;;;;;;23.47;51.16;100034.88;5065582;28;895;-39
2022/08/23 01:27:17;;;;;;;;;;;;;;;24.42;47.96;100029.31;5048850;28;1430;-39
2022/08/23 01:29:42;;;;;;;;;;;;;;;25.29;46.54;100028.91;5072245;28;1518;-39
2022/08/23 01:32:08;;;;;;;;;;;;;;;25.76;46.15;100027.78;5069352;28;1218;-40
2022/08/23 01:34:33;;;;;;;;;;;;;;;23.24;52.23;100022.16;5054290;28;1096;-40
2022/08/23 01:36:58;;;;;;;;;;;;;;;24.44;48.04;100038.06;5067502;28;1898;-40
2022/08/23 01:39:23;;;;;;;;;;;;;;;25.26;46.51;100036.53;5056581;28;1405;-44
2022/08/23 01:41:50;;;;;;;;;;;;;;;23.48;49.05;100032.00;5075132;28;1091;-42
2022/08/23 01:44:15;;;;;;;;;;;;;;;24.15;48.84;100033.41;5070832;28;1040;-42
2022/08/23 01:46:42;;;;;;;;;;;;;;;25.04;46.97;100039.16;5072541;28;984;-43
2022/08/23 01:49:07;;;;;;;;;;;;;;;25.44;45.11;100026.19;5073264;28;1040;-42
2022/08/23 01:51:32;;;;;;;;;;;;;;;23.14;53.54;100024.25;5074017;28;1252;-41
2022/08/23 01:53:58;;;;;;;;;;;;;;;24.29;48.47;100031.81;5074866;28;909;-41
2022/08/23 01:56:23;;;;;;;;;;;;;;;25.26;46.07;100028.44;5067754;28;1901;-40
2022/08/23 01:58:48;;;;;;;;;;;;;;;23.37;51.88;100037.75;5070534;28;965;-41
2022/08/23 02:01:14;;;;;;;;;;;;;;;24.46;48.67;100041.41;5069715;28;1035;-41
2022/08/23 02:03:39;;;;;;;;;;;;;;;25.33;46.91;100034.75;5072048;28;1005;-41
2022/08/23 02:06:05;;;;;;;;;;;;;;;25.86;45.23;100035.59;5075096;28;1064;-42
2022/08/23 02:11:15;;;;;;;;;;;;;;;24.43;48.42;100038.22;5073109;28;1115;-39
2022/08/23 02:13:40;;;;;;;;;;;;;;;25.22;46.95;100032.56;5075637;28;1132;-40
2022/08/23 02:16:06;;;;;;;;;;;;;;;25.70;45.14;100025.88;5060075;28;1965;-40
2022/08/23 02:18:31;;;;;;;;;;;;;;;25.74;44.75;100036.06;5078085;28;1100;-40
2022/08/23 02:20:56;;;;;;;;;;;;;;;23.41;54.20;100038.22;5072633;28;969;-40
2022/08/23 02:23:22;;;;;;;;;;;;;;;24.65;48.52;100044.59;5069692;28;1060;-40
2022/08/23 02:25:48;;;;;;;;;;;;;;;23.27;54.35;100048.69;5069325;28;1052;-39
2022/08/23 02:28:13;;;;;;;;;;;;;;;24.56;48.40;100053.72;5073776;28;1088;-39
2022/08/23 02:30:39;;;;;;;;;;;;;;;25.36;46.82;100050.53;5070527;28;1219;-39
2022/08/23 02:33:04;;;;;;;;;;;;;;;23.48;50.82;100048.13;5075241;28;1143;-47
2022/08/23 02:35:32;;;;;;;;;;;;;;;24.65;45.53;100057.19;5072702;28;1290;-41
2022/08/23 02:37:57;;;;;;;;;;;;;;;25.59;44.83;100063.00;5076132;28;1961;-40
2022/08/23 02:40:23;;;;;;;;;;;;;;;26.13;43.60;100076.25;5075441;28;1179;-39
2022/08/23 02:42:48;;;;;;;;;;;;;;;26.34;43.42;100066.53;5074305;28;1131;-41
2022/08/23 02:45:14;;;;;;;;;;;;;;;26.40;45.41;100079.22;5075604;28;1135;-40
2022/08/23 02:47:39;;;;;;;;;;;;;;;26.51;46.27;100077.84;5070559;28;1091;-39
2022/08/23 02:50:05;;;;;;;;;;;;;;;26.58;46.72;100073.34;5075816;28;1036;-39
2022/08/23 02:52:30;;;;;;;;;;;;;;;26.63;46.00;100075.44;5070743;28;1367;-38
2022/08/23 02:54:55;;;;;;;;;;;;;;;26.70;45.51;100086.28;5062904;28;1092;-39
2022/08/23 02:57:21;;;;;;;;;;;;;;;26.69;45.33;100093.56;5066579;28;1949;-42
2022/08/23 02:59:46;;;;;;;;;;;;;;;26.78;46.71;100095.09;5065256;28;970;-42
2022/08/23 03:02:12;;;;;;;;;;;;;;;26.48;45.22;100100.66;5077607;28;1251;-43
2022/08/23 03:04:37;;;;;;;;;;;;;;;26.39;44.54;100099.94;5071896;28;949;-41
2022/08/23 03:07:03;;;;;;;;;;;;;;;26.46;44.84;100110.00;5051406;28;1037;-41
2022/08/23 03:09:28;;;;;;;;;;;;;;;26.53;46.19;100114.41;5069307;28;977;-42
2022/08/23 03:11:53;;;;;;;;;;;;;;;26.59;46.28;100106.56;5069052;28;1210;-44
2022/08/23 03:14:19;;;;;;;;;;;;;;;26.63;47.98;100111.38;5072373;28;1020;-42
2022/08/23 03:16:44;;;;;;;;;;;;;;;26.64;48.75;100113.03;5071892;28;1914;-43
2022/08/23 03:19:09;;;;;;;;;;;;;;;26.49;47.20;100113.09;5071012;28;1186;-43
2022/08/23 03:21:35;;;;;;;;;;;;;;;26.47;46.53;100112.50;5068062;28;1469;-42
2022/08/23 03:24:00;;;;;;;;;;;;;;;26.58;47.68;100121.91;5065330;28;985;-44
2022/08/23 03:26:25;;;;;;;;;;;;;;;26.47;47.94;100122.44;5071761;28;953;-45
2022/08/23 03:28:51;;;;;;;;;;;;;;;26.59;46.67;100112.78;5064918;28;1137;-45
2022/08/23 03:31:16;;;;;;;;;;;;;;;26.58;47.02;100116.50;5072762;28;1024;-44
2022/08/23 03:33:41;;;;;;;;;;;;;;;26.56;46.77;100121.25;5070294;28;977;-42
2022/08/23 03:36:07;;;;;;;;;;;;;;;26.59;46.79;100123.56;5067537;28;1898;-44
2022/08/23 03:38:33;;;;;;;;;;;;;;;26.57;47.54;100122.94;5071447;28;1088;-43
2022/08/23 03:40:59;;;;;;;;;;;;;;;26.62;48.04;100125.06;5067226;28;1362;-43
2022/08/23 03:43:25;;;;;;;;;;;;;;;26.31;49.27;100121.63;5065938;28;1492;-42
2022/08/23 03:45:50;;;;;;;;;;;;;;;26.58;48.68;100130.00;5070057;28;1310;-41
2022/08/23 03:48:16;;;;;;;;;;;;;;;26.76;48.57;100125.97;5065436;28;1386;-41
2022/08/23 03:50:41;;;;;;;;;;;;;;;26.88;47.89;100129.81;5071712;28;1037;-42
2022/08/23 03:53:06;;;;;;;;;;;;;;;27.03;47.37;100126.19;5072233;28;1226;-44
2022/08/23 03:55:32;;;;;;;;;;;;;;;27.02;47.56;100141.59;5063955;28;1248;-44
2022/08/23 03:57:57;;;;;;;;;;;;;;;27.22;46.69;100140.03;5069609;28;1955;-42
2022/08/23 04:00:22;;;;;;;;;;;;;;;27.27;46.80;100142.97;5069953;28;1035;-46
2022/08/23 04:02:48;;;;;;;;;;;;;;;27.23;45.82;100147.09;5070695;28;1044;-45
2022/08/23 04:05:13;;;;;;;;;;;;;;;27.28;46.15;100149.22;5065991;28;977;-45
2022/08/23 04:07:39;;;;;;;;;;;;;;;27.23;46.11;100142.53;5071802;28;969;-44
2022/08/23 04:10:05;;;;;;;;;;;;;;;27.07;46.45;100149.09;5069558;28;1218;-43
2022/08/23 04:12:30;;;;;;;;;;;;;;;27.06;46.93;100143.88;5070138;28;905;-44
2022/08/23 04:14:56;;;;;;;;;;;;;;;27.08;47.10;100137.25;5075328;28;1087;-45
2022/08/23 04:17:21;;;;;;;;;;;;;;;27.14;47.50;100146.44;5076510;28;1952;-43
2022/08/23 04:19:47;;;;;;;;;;;;;;;27.22;47.13;100148.13;5068667;28;961;-43
2022/08/23 04:22:12;;;;;;;;;;;;;;;27.22;47.19;100134.63;5066194;28;965;-42
2022/08/23 04:24:38;;;;;;;;;;;;;;;27.26;47.13;100141.28;5070415;28;1052;-45
2022/08/23 04:27:04;;;;;;;;;;;;;;;27.36;47.44;100130.16;5070215;28;1051;-43
2022/08/23 04:29:30;;;;;;;;;;;;;;;27.43;47.36;100131.00;5070307;28;984;-42
2022/08/23 04:31:55;;;;;;;;;;;;;;;27.60;47.12;100131.50;5072974;28;1049;-44
2022/08/23 04:34:21;;;;;;;;;;;;;;;27.50;46.90;100134.56;5071544;28;1075;-50
2022/08/23 04:36:46;;;;;;;;;;;;;;;27.37;47.21;100132.66;5071371;28;1902;-45
2022/08/23 04:39:11;;;;;;;;;;;;;;;27.47;46.09;100137.69;5066008;28;1123;-48
2022/08/23 04:44:20;;;;;;;;;;;;;;;27.37;46.63;100148.00;5068857;28;1200;-42
2022/08/23 04:46:47;;;;;;;;;;;;;;;27.43;45.91;100146.34;5070937;28;1032;-45
2022/08/23 04:49:12;;;;;;;;;;;;;;;27.37;45.93;100145.31;5067282;28;980;-42
2022/08/23 04:51:38;;;;;;;;;;;;;;;27.49;45.45;100154.50;5070746;28;1056;-42
2022/08/23 04:54:03;;;;;;;;;;;;;;;27.35;45.38;100158.16;5074435;28;1083;-41
2022/08/23 04:56:29;;;;;;;;;;;;;;;27.45;45.26;100161.34;5074125;28;1953;-43
2022/08/23 04:58:55;;;;;;;;;;;;;;;27.46;45.06;100168.41;5075416;28;1028;-42
2022/08/23 05:01:20;;;;;;;;;;;;;;;27.55;44.25;100168.25;5066397;28;969;-42
2022/08/23 05:03:46;;;;;;;;;;;;;;;27.66;44.47;100170.38;5066443;28;992;-44
2022/08/23 05:06:11;;;;;;;;;;;;;;;27.93;42.95;100170.50;5070823;28;977;-43
2022/08/23 05:08:36;;;;;;;;;;;;;;;27.95;43.50;100165.75;5067255;28;1055;-42
2022/08/23 05:11:02;;;;;;;;;;;;;;;28.05;43.22;100173.47;5071725;28;1123;-43
2022/08/23 05:13:28;;;;;;;;;;;;;;;28.02;43.59;100167.63;5067255;28;1250;-44
2022/08/23 05:15:53;;;;;;;;;;;;;;;27.75;43.51;100160.25;5073043;28;1906;-42
2022/08/23 05:18:18;;;;;;;;;;;;;;;27.77;43.93;100170.88;5072920;28;1219;-43
2022/08/23 05:20:44;;;;;;;;;;;;;;;27.80;43.27;100168.59;5074424;28;1099;-43
2022/08/23 05:23:09;;;;;;;;;;;;;;;28.15;43.37;100167.66;5062570;28;1211;-43
2022/08/23 05:25:50;;;;;;;;;;;;;;;28.07;43.65;100171.41;5064521;28;1111;-40
2022/08/23 05:28:15;;;;;;;;;;;;;;;27.89;43.39;100173.84;5066422;28;1075;-43
2022/08/23 05:30:41;;;;;;;;;;;;;;;27.92;43.10;100179.66;5071320;28;1099;-44
2022/08/23 05:33:06;;;;;;;;;;;;;;;28.06;43.80;100179.72;5069939;28;1237;-44
2022/08/23 05:35:31;;;;;;;;;;;;;;;28.28;43.05;100177.69;5073698;28;1076;-40
2022/08/23 05:37:59;;;;;;;;;;;;;;;27.96;42.90;100180.91;5066565;28;1953;-41
2022/08/23 05:40:25;;;;;;;;;;;;;;;28.06;42.65;100177.81;5074741;28;1028;-42
2022/08/23 05:42:51;;;;;;;;;;;;;;;28.18;43.07;100182.63;5071079;28;1068;-39
2022/08/23 05:45:16;;;;;;;;;;;;;;;28.27;41.26;100177.88;5070668;28;989;-40
2022/08/23 05:47:41;;;;;;;;;;;;;;;28.37;43.03;100178.34;5069956;28;984;-41
2022/08/23 05:50:07;;;;;;;;;;;;;;;28.53;41.48;100179.81;5069819;28;838;-38
2022/08/23 05:52:33;;;;;;;;;;;;;;;28.20;38.80;100181.41;5059643;28;1346;-43
2022/08/23 05:54:58;;;;;;;;;;;;;;;28.31;39.53;100173.75;5049251;28;1284;-43
2022/08/23 05:57:23;;;;;;;;;;;;;;;28.44;40.59;100181.06;5046198;28;1898;-40
2022/08/23 05:59:49;;;;;;;;;;;;;;;28.75;40.77;100178.78;5050116;28;1482;-40
2022/08/23 06:02:14;;;;;;;;;;;;;;;28.58;40.43;100173.78;5045474;28;1374;-41
2022/08/23 06:04:40;;;;;;;;;;;;;;;28.60;40.92;100174.41;5044564;28;1335;-40
2022/08/23 06:07:05;;;;;;;;;;;;;;;28.48;41.14;100174.19;5046692;28;1525;-39
2022/08/23 06:09:31;;;;;;;;;;;;;;;28.50;41.21;100174.00;5048423;28;1403;-38
2022/08/23 06:11:57;;;;;;;;;;;;;;;28.61;40.99;100176.09;5045495;28;1264;-44
2022/08/23 06:14:22;;;;;;;;;;;;;;;28.67;41.14;100177.97;5047275;28;1387;-41
2022/08/23 06:16:48;;;;;;;;;;;;;;;28.82;41.66;100179.63;5046131;28;1902;-41
2022/08/23 06:19:13;;;;;;;;;;;;;;;28.84;40.76;100177.56;5060613;28;1537;-39
2022/08/23 06:21:39;;;;;;;;;;;;;;;28.83;40.70;100173.16;5068419;28;1202;-39
2022/08/23 06:24:05;;;;;;;;;;;;;;;28.86;40.92;100180.91;5073589;28;1009;-41
2022/08/23 06:26:32;;;;;;;;;;;;;;;28.85;39.38;100181.91;5073416;28;1124;-41
2022/08/23 06:28:58;;;;;;;;;;;;;;;28.85;39.88;100190.03;5057265;28;970;-37
2022/08/23 06:34:08;;;;;;;;;;;;;;;28.60;40.70;100190.66;5052311;28;1324;-38
2022/08/23 06:36:35;;;;;;;;;;;;;;;28.66;40.58;100187.13;5061884;28;1969;-38
2022/08/23 06:39:00;;;;;;;;;;;;;;;28.64;40.52;100180.25;5065150;28;1207;-38
2022/08/23 06:41:26;;;;;;;;;;;;;;;28.91;40.39;100183.78;5068265;28;1443;-42
2022/08/23 06:43:51;;;;;;;;;;;;;;;29.05;40.12;100176.53;5049982;28;1335;-39
2022/08/23 06:46:20;;;;;;;;;;;;;;;29.02;39.82;100181.53;5069304;28;1155;-38
2022/08/23 06:48:46;;;;;;;;;;;;;;;28.76;38.58;100177.78;5051661;28;1418;-39
2022/08/23 06:51:11;;;;;;;;;;;;;;;28.68;39.55;100178.78;5058202;28;1365;-40
2022/08/23 06:53:37;;;;;;;;;;;;;;;28.85;40.01;100180.06;5057813;28;1430;-41
2022/08/23 06:56:02;;;;;;;;;;;;;;;29.20;39.08;100180.88;5058485;28;1955;-39
2022/08/23 06:58:27;;;;;;;;;;;;;;;29.39;39.18;100183.75;5068403;28;1493;-42
2022/08/23 07:00:53;;;;;;;;;;;;;;;29.39;39.69;100183.75;5076454;28;1028;-39
2022/08/23 07:03:18;;;;;;;;;;;;;;;29.40;39.04;100194.38;5061727;28;1216;-42
2022/08/23 07:05:44;;;;;;;;;;;;;;;29.38;38.72;100193.75;5069932;28;1052;-43
2022/08/23 07:08:09;;;;;;;;;;;;;;;29.11;39.51;100193.81;5070147;28;1016;-41
2022/08/23 07:10:34;;;;;;;;;;;;;;;29.05;39.45;100195.47;5068455;28;1415;-39
2022/08/23 07:12:59;;;;;;;;;;;;;;;28.91;40.22;100199.22;5073232;28;1056;-39
2022/08/23 07:15:25;;;;;;;;;;;;;;;28.90;40.58;100195.66;5050564;28;1288;-39
2022/08/23 07:17:50;;;;;;;;;;;;;;;29.42;40.17;100199.59;5068181;28;1910;-39
2022/08/23 07:20:15;;;;;;;;;;;;;;;29.51;39.52;100195.59;5073659;28;1258;-42
2022/08/23 07:22:41;;;;;;;;;;;;;;;29.08;40.24;100195.06;5076116;28;1056;-41
2022/08/23 07:25:06;;;;;;;;;;;;;;;28.85;40.57;100195.44;5073900;28;1139;-42
2022/08/23 07:27:31;;;;;;;;;;;;;;;29.01;40.22;100194.22;5054769;28;1368;-42
2022/08/23 07:29:57;;;;;;;;;;;;;;;29.16;40.73;100185.88;5053419;28;1290;-42
2022/08/23 07:32:22;;;;;;;;;;;;;;;29.24;39.98;100194.81;5057654;28;1237;-43
2022/08/23 07:34:47;;;;;;;;;;;;;;;29.49;39.20;100200.41;5058860;28;1143;-41
2022/08/23 07:37:13;;;;;;;;;;;;;;;29.48;39.53;100212.28;5066017;28;2219;-43
2022/08/23 07:39:38;;;;;;;;;;;;;;;29.20;40.04;100200.69;5066205;28;1016;-42
2022/08/23 07:42:03;;;;;;;;;;;;;;;29.46;38.68;100204.34;5069233;28;958;-41
2022/08/23 07:44:29;;;;;;;;;;;;;;;29.45;39.14;100207.28;5066799;28;957;-42
2022/08/23 07:46:54;;;;;;;;;;;;;;;29.52;39.34;100210.81;5070553;28;1037;-40
2022/08/23 07:49:19;;;;;;;;;;;;;;;29.24;40.01;100211.09;5073164;28;1056;-40
2022/08/23 07:51:45;;;;;;;;;;;;;;;29.10;40.46;100216.50;5037348;28;1169;-38
2022/08/23 07:54:11;;;;;;;;;;;;;;;29.01;40.33;100215.06;5063127;28;1205;-38
2022/08/23 07:56:37;;;;;;;;;;;;;;;29.36;40.21;100213.97;5058564;28;1898;-40
2022/08/23 07:59:02;;;;;;;;;;;;;;;29.27;39.51;100216.91;5070580;28;945;-39
2022/08/23 08:01:28;;;;;;;;;;;;;;;29.27;39.35;100214.22;5069738;28;925;-42
2022/08/23 08:03:55;;;;;;;;;;;;;;;29.11;38.04;100207.38;5067194;28;902;-39
2022/08/23 08:06:21;;;;;;;;;;;;;;;28.94;37.43;100215.03;5070947;28;1039;-48
2022/08/23 08:08:47;;;;;;;;;;;;;;;28.92;36.07;100212.53;5068673;28;1187;-51
2022/08/23 08:11:13;;;;;;;;;;;;;;;29.26;36.42;100204.41;5071891;28;1092;-47
2022/08/23 08:13:39;;;;;;;;;;;;;;;29.52;36.77;100212.69;5067896;28;1181;-45
2022/08/23 08:16:05;;;;;;;;;;;;;;;29.29;37.23;100205.88;5057818;28;1898;-50
2022/08/23 08:18:30;;;;;;;;;;;;;;;29.20;38.34;100202.53;5068484;28;1029;-50
2022/08/23 08:20:55;;;;;;;;;;;;;;;29.07;38.97;100206.94;5061153;28;1453;-47
2022/08/23 08:23:21;;;;;;;;;;;;;;;29.13;39.35;100207.16;5074429;28;996;-43
2022/08/23 08:25:46;;;;;;;;;;;;;;;29.26;39.85;100198.97;5073808;28;961;-53
2022/08/23 08:28:11;;;;;;;;;;;;;;;29.06;35.93;100185.50;5068204;28;1075;-41
2022/08/23 08:30:38;;;;;;;;;;;;;;;29.32;36.38;100191.91;5066583;28;1023;-46
2022/08/23 08:33:03;;;;;;;;;;;;;;;29.64;36.17;100183.09;5072916;28;993;-48
2022/08/23 08:35:28;;;;;;;;;;;;;;;29.76;36.79;100177.84;5053132;28;1336;-47
2022/08/23 08:37:53;;;;;;;;;;;;;;;30.09;36.14;100163.28;5066276;28;1906;-45
2022/08/23 08:40:19;;;;;;;;;;;;;;;30.15;36.95;100156.97;5057542;28;1372;-43
2022/08/23 08:43:11;;;;;;;;;;;;;;;30.13;37.41;100167.19;5047366;28;1123;-42
2022/08/23 08:45:44;;;;;;;;;;;;;;;29.79;37.37;100164.69;5049510;28;1180;-43
2022/08/23 08:48:10;;;;;;;;;;;;;;;29.87;38.42;100154.63;5063751;28;1148;-47
2022/08/23 08:50:38;;;;;;;;;;;;;;;29.96;37.77;100150.63;5042971;28;1116;-46
2022/08/23 08:53:08;;;;;;;;;;;;;;;29.85;38.02;100154.00;5067480;28;1159;-46
2022/08/23 08:55:38;;;;;;;;;;;;;;;29.98;38.37;100155.84;5046926;28;1260;-47
2022/08/23 08:58:03;;;;;;;;;;;;;;;30.00;38.32;100164.56;5058889;28;1957;-45
2022/08/23 09:00:35;;;;;;;;;;;;;;;30.02;38.64;100171.44;5043471;28;1474;-47
2022/08/23 09:03:03;;;;;;;;;;;;;;;30.03;38.51;100185.84;5047492;28;1477;-46
2022/08/23 09:05:33;;;;;;;;;;;;;;;30.01;38.32;100172.47;5045504;28;1292;-45
2022/08/23 09:08:03;;;;;;;;;;;;;;;30.01;38.55;100177.91;5055055;28;986;-46
2022/08/23 09:10:34;;;;;;;;;;;;;;;30.00;38.13;100187.09;5050854;28;1116;-46
2022/08/23 09:13:04;;;;;;;;;;;;;;;29.91;38.07;100189.22;5063110;28;1177;-48
2022/08/23 09:15:35;;;;;;;;;;;;;;;29.98;38.18;100189.19;5057613;28;1045;-46
2022/08/23 09:18:11;;;;;;;;;;;;;;;30.02;38.28;100185.00;5068357;28;1923;-50
2022/08/23 09:20:36;;;;;;;;;;;;;;;30.03;38.75;100189.38;5074808;28;1009;-48
2022/08/23 09:23:18;;;;;;;;;;;;;;;30.07;37.86;100181.63;5072617;28;1139;-45
2022/08/23 09:25:51;;;;;;;;;;;;;;;30.09;37.42;100182.25;5053206;28;1185;-45
2022/08/23 09:28:16;;;;;;;;;;;;;;;30.09;38.64;100184.13;5056710;28;1169;-49
2022/08/23 09:30:47;;;;;;;;;;;;;;;30.07;38.94;100189.78;5068438;28;1201;-47
2022/08/23 09:33:16;;;;;;;;;;;;;;;30.13;38.80;100201.66;5060460;28;1028;-49
2022/08/23 09:35:42;;;;;;;;;;;;;;;30.12;39.23;100199.97;5064171;28;1001;-49
2022/08/23 09:38:15;;;;;;;;;;;;;;;30.25;39.17;100196.38;5069354;28;1901;-46
2022/08/23 09:40:44;;;;;;;;;;;;;;;30.10;38.79;100202.06;5046106;28;922;-54
2022/08/23 09:43:11;;;;;;;;;;;;;;;29.81;39.67;100197.81;5065208;28;996;-49
2022/08/23 09:45:57;;;;;;;;;;;;;;;29.75;39.97;100205.97;5055633;28;1144;-47
2022/08/23 09:48:37;;;;;;;;;;;;;;;30.01;39.80;100209.63;5061649;28;1680;-56
2022/08/23 09:51:21;;;;;;;;;;;;;;;29.96;40.23;100217.56;5068332;28;1024;-46
2022/08/23 09:53:48;;;;;;;;;;;;;;;29.94;39.94;100205.06;5071883;28;1004;-49
2022/08/23 09:56:15;;;;;;;;;;;;;;;30.16;39.80;100210.16;5052278;28;1894;-46
2022/08/23 09:58:42;;;;;;;;;;;;;;;30.25;40.31;100207.22;5073328;28;953;-50
2022/08/23 10:01:17;;;;;;;;;;;;;;;30.47;39.64;100202.28;5055429;28;1037;-54
2022/08/23 10:03:42;;;;;;;;;;;;;;;30.35;39.71;100206.75;5048102;28;970;-49
2022/08/23 10:06:08;;;;;;;;;;;;;;;30.38;39.25;100209.03;5074872;28;1139;-57
2022/08/23 10:08:37;;;;;;;;;;;;;;;30.17;40.40;100206.41;5052690;28;1088;-50
2022/08/23 10:11:18;;;;;;;;;;;;;;;29.75;36.62;100205.97;5054510;28;1044;-48
2022/08/23 10:13:43;;;;;;;;;;;;;;;29.42;39.57;100207.72;5060413;28;962;-43
2022/08/23 10:16:09;;;;;;;;;;;;;;;28.41;40.75;100203.94;5070199;28;1898;-50
2022/08/23 10:18:37;;;;;;;;;;;;;;;27.65;42.13;100201.13;5071258;28;1214;-45
2022/08/23 10:21:26;;;;;;;;;;;;;;;27.03;43.11;100199.09;5076304;28;953;-49
2022/08/23 10:24:09;;;;;;;;;;;;;;;26.46;44.14;100197.09;5059669;28;1751;-44
2022/08/23 10:26:36;;;;;;;;;;;;;;;26.47;43.96;100198.78;5066910;28;1259;-45
2022/08/23 10:31:55;;;;;;;;;;;;;;;26.47;47.36;100190.69;5053135;28;1229;-43
2022/08/23 10:34:27;;;;;;;;;;;;;;;28.40;42.50;100204.16;5074011;28;1032;-45
2022/08/23 10:37:04;;;;;;;;;;;;;;;27.73;41.49;100192.91;5054755;28;1968;-49
2022/08/23 10:39:30;;;;;;;;;;;;;;;26.94;43.38;100194.84;5058303;28;1486;-48
2022/08/23 10:41:58;;;;;;;;;;;;;;;26.12;43.92;100196.72;5066398;28;992;-44
2022/08/23 10:44:33;;;;;;;;;;;;;;;25.94;44.99;100199.84;5062502;28;1391;-42
2022/08/23 10:47:11;;;;;;;;;;;;;;;25.88;45.59;100200.56;5062566;28;1081;-48
2022/08/23 10:49:37;;;;;;;;;;;;;;;26.05;46.89;100195.81;5072491;28;1074;-47
2022/08/23 10:52:03;;;;;;;;;;;;;;;27.44;42.77;100193.97;5072621;28;850;-43
2022/08/23 10:54:44;;;;;;;;;;;;;;;27.58;41.61;100193.00;5050080;28;1260;-48
2022/08/23 10:57:10;;;;;;;;;;;;;;;26.71;43.46;100191.31;5064228;28;1951;-58
2022/08/23 10:59:36;;;;;;;;;;;;;;;26.31;44.06;100199.00;5060126;28;1040;-54
2022/08/23 11:02:18;;;;;;;;;;;;;;;26.32;44.10;100193.41;5039090;28;1171;-52
2022/08/23 11:04:43;;;;;;;;;;;;;;;26.19;44.47;100193.28;5058880;28;1002;-59
2022/08/23 11:07:18;;;;;;;;;;;;;;;25.80;49.35;100191.59;5061901;28;1329;-51
2022/08/23 11:09:57;;;;;;;;;;;;;;;27.74;43.19;100182.94;5061139;28;1149;-58
2022/08/23 11:12:22;;;;;;;;;;;;;;;27.12;42.31;100181.72;5063754;28;866;-61
2022/08/23 11:14:58;;;;;;;;;;;;;;;26.35;42.97;100184.13;5066168;28;1503;-58
2022/08/23 11:17:40;;;;;;;;;;;;;;;25.78;44.72;100188.25;5054810;28;1898;-59
2022/08/23 11:20:08;;;;;;;;;;;;;;;25.77;45.14;100193.81;5066948;28;1223;-54
2022/08/23 11:22:53;;;;;;;;;;;;;;;25.72;45.31;100183.59;5060220;28;1291;-54
2022/08/23 11:25:19;;;;;;;;;;;;;;;25.56;49.71;100185.44;5070388;28;1077;-56
2022/08/23 11:27:44;;;;;;;;;;;;;;;27.38;43.40;100179.38;5064332;28;1332;-59
2022/08/23 11:30:28;;;;;;;;;;;;;;;27.34;41.54;100183.53;5057885;28;1328;-56
2022/08/23 11:32:53;;;;;;;;;;;;;;;26.49;42.07;100182.41;5058264;28;1184;-53
2022/08/23 11:35:38;;;;;;;;;;;;;;;26.02;47.24;100186.25;5059272;28;1093;-49
2022/08/23 11:38:03;;;;;;;;;;;;;;;27.25;40.28;100186.38;5069278;28;1894;-50
2022/08/23 11:40:35;;;;;;;;;;;;;;;26.47;41.62;100181.75;5046666;28;1042;-49
2022/08/23 11:43:02;;;;;;;;;;;;;;;26.59;39.57;100180.22;5074740;28;1003;-54
2022/08/23 11:45:36;;;;;;;;;;;;;;;26.99;40.64;100177.00;5049511;28;1264;-53
2022/08/23 11:48:13;;;;;;;;;;;;;;;26.25;40.92;100179.03;5065358;28;914;-54
2022/08/23 11:50:44;;;;;;;;;;;;;;;27.31;36.60;100179.34;5066211;28;1161;-54
2022/08/23 11:53:15;;;;;;;;;;;;;;;26.22;41.15;100177.56;5066578;28;1000;-58
2022/08/23 11:55:41;;;;;;;;;;;;;;;26.85;36.86;100168.00;5052162;28;1216;-53
2022/08/23 11:58:23;;;;;;;;;;;;;;;26.75;40.88;100173.72;5066373;28;1898;-52
2022/08/23 12:00:53;;;;;;;;;;;;;;;26.34;39.68;100164.41;5056815;28;1292;-55
2022/08/23 12:03:18;;;;;;;;;;;;;;;27.46;39.54;100162.19;5062574;28;1304;-49
2022/08/23 12:06:03;;;;;;;;;;;;;;;26.29;41.63;100156.06;5070939;28;886;-55
2022/08/23 12:08:29;;;;;;;;;;;;;;;26.48;42.50;100162.69;5012255;28;1387;-51
2022/08/23 12:10:58;;;;;;;;;;;;;;;27.51;41.19;100174.03;5059157;28;1260;-51
2022/08/23 12:13:25;;;;;;;;;;;;;;;26.29;43.45;100175.75;5060620;28;1227;-54
2022/08/23 12:16:08;;;;;;;;;;;;;;;25.86;44.66;100173.81;5061524;28;1188;-50
2022/08/23 12:18:35;;;;;;;;;;;;;;;27.12;43.03;100172.78;5045574;28;1558;-49
2022/08/23 12:21:01;;;;;;;;;;;;;;;26.92;43.06;100169.91;5056828;28;1215;-49
2022/08/23 12:23:27;;;;;;;;;;;;;;;26.15;43.83;100160.47;5073732;28;984;-53
2022/08/23 12:26:24;;;;;;;;;;;;;;;25.88;47.95;100160.16;5073206;28;1036;-51
2022/08/23 12:28:54;;;;;;;;;;;;;;;27.62;42.56;100161.00;5026773;28;1328;-50
2022/08/23 12:31:22;;;;;;;;;;;;;;;26.53;43.97;100154.84;5055966;28;1160;-47
2022/08/23 12:33:50;;;;;;;;;;;;;;;25.95;44.77;100161.06;5076574;28;1056;-48
2022/08/23 12:36:19;;;;;;;;;;;;;;;25.73;45.16;100155.63;5061064;28;1915;-55
2022/08/23 12:38:53;;;;;;;;;;;;;;;26.25;45.50;100160.16;5069494;28;954;-45
2022/08/23 12:41:19;;;;;;;;;;;;;;;27.16;43.68;100163.25;5072778;28;1103;-47
2022/08/23 12:43:53;;;;;;;;;;;;;;;26.23;44.99;100154.94;5075779;28;1226;-45
2022/08/23 12:46:28;;;;;;;;;;;;;;;25.74;45.69;100160.00;5063788;28;1221;-52
2022/08/23 12:48:53;;;;;;;;;;;;;;;25.76;45.60;100157.09;5064751;28;934;-48
2022/08/23 12:51:18;;;;;;;;;;;;;;;25.63;45.82;100153.22;5064269;28;954;-47
2022/08/23 12:56:47;;;;;;;;;;;;;;;27.50;44.02;100158.88;5066792;28;1902;-56
2022/08/23 12:59:43;;;;;;;;;;;;;;;26.63;43.05;100156.38;5055034;28;1085;-48
2022/08/23 13:02:13;;;;;;;;;;;;;;;26.08;44.95;100164.94;4974701;28;1018;-42
2022/08/23 13:04:39;;;;;;;;;;;;;;;27.14;43.96;100165.31;5042943;28;1423;-43
2022/08/23 13:07:05;;;;;;;;;;;;;;;26.95;43.18;100174.91;5075785;28;1056;-53
2022/08/23 13:09:32;;;;;;;;;;;;;;;26.09;44.71;100172.81;5070908;28;1017;-47